Time;durP1;ratioP1;P1;durP2;ratioP2;P2;SDS_P1;SDS_P2;PMS_P1;PMS_P2;Temp;Humidity;BMP_temperature;BMP_pressure;BME280_temperature;BME280_humidity;BME280_pressure;Samples;Min_cycle;Max_cycle;Signal;HPM_P1;HPM_P2
2022/01/02 00:01:45;;;;;;;;;;;;;;;11.98;62.34;100390.16;5050376;28;19921;-87
2022/01/02 00:04:17;;;;;;;;;;;;;;;12.03;61.48;100390.09;5049962;28;20008;-87
2022/01/02 00:06:50;;;;;;;;;;;;;;;11.92;61.70;100392.84;5049589;28;19923;-87
2022/01/02 00:09:30;;;;;;;;;;;;;;;11.95;62.29;100391.97;5048471;28;19929;-87
2022/01/02 00:12:01;;;;;;;;;;;;;;;12.07;61.74;100397.13;5049123;28;19966;-87
2022/01/02 00:14:31;;;;;;;;;;;;;;;11.99;62.04;100397.19;5047753;28;19920;-86
2022/01/02 00:16:56;;;;;;;;;;;;;;;11.99;61.64;100394.56;5048772;28;19947;-86
2022/01/02 00:19:29;;;;;;;;;;;;;;;11.94;62.23;100391.09;5049387;28;20307;-86
2022/01/02 00:21:56;;;;;;;;;;;;;;;12.11;61.67;100396.22;5047322;28;19928;-86
2022/01/02 00:24:23;;;;;;;;;;;;;;;11.89;61.90;100398.13;5049537;28;19921;-87
2022/01/02 00:26:50;;;;;;;;;;;;;;;11.87;62.02;100396.41;5048606;28;19925;-85
2022/01/02 00:29:16;;;;;;;;;;;;;;;12.05;61.49;100403.31;5048336;28;19924;-87
2022/01/02 00:31:41;;;;;;;;;;;;;;;12.00;61.68;100395.44;5049263;28;20335;-86
2022/01/02 00:34:07;;;;;;;;;;;;;;;12.04;61.81;100401.59;5047807;28;19928;-87
2022/01/02 00:36:33;;;;;;;;;;;;;;;12.03;61.88;100410.41;5048449;28;20712;-88
2022/01/02 00:38:58;;;;;;;;;;;;;;;12.09;61.57;100405.03;5048160;28;20425;-88
2022/01/02 00:41:31;;;;;;;;;;;;;;;11.98;61.32;100406.00;5049542;28;19959;-87
2022/01/02 00:44:06;;;;;;;;;;;;;;;12.00;61.51;100409.53;5048413;28;20015;-87
2022/01/02 00:46:32;;;;;;;;;;;;;;;12.02;61.53;100411.28;5049429;28;19943;-86
2022/01/02 00:49:01;;;;;;;;;;;;;;;12.06;61.50;100405.94;5048668;28;20417;-86
2022/01/02 00:51:32;;;;;;;;;;;;;;;12.02;61.58;100409.53;5049164;28;19921;-87
2022/01/02 00:53:59;;;;;;;;;;;;;;;11.95;61.35;100408.69;5048606;28;19917;-87
2022/01/02 00:56:27;;;;;;;;;;;;;;;12.13;61.17;100412.94;5042616;28;19982;-86
2022/01/02 00:58:58;;;;;;;;;;;;;;;11.99;61.53;100410.41;5030164;28;19917;-87
2022/01/02 01:01:24;;;;;;;;;;;;;;;11.94;61.74;100417.53;5029288;28;19952;-87
2022/01/02 01:03:54;;;;;;;;;;;;;;;11.92;61.90;100418.41;5028700;28;19928;-87
2022/01/02 01:06:22;;;;;;;;;;;;;;;11.94;61.75;100425.47;5028884;28;19921;-87
2022/01/02 01:08:50;;;;;;;;;;;;;;;11.96;61.96;100415.75;5028192;28;19929;-88
2022/01/02 01:11:16;;;;;;;;;;;;;;;11.85;61.86;100422.88;5028903;28;20597;-88
2022/01/02 01:13:41;;;;;;;;;;;;;;;11.84;62.12;100423.75;5043735;28;19928;-87
2022/01/02 01:16:07;;;;;;;;;;;;;;;11.85;61.92;100416.69;5047994;28;20738;-86
2022/01/02 01:18:32;;;;;;;;;;;;;;;11.92;61.89;100419.28;5048016;28;20009;-87
2022/01/02 01:20:58;;;;;;;;;;;;;;;11.94;61.32;100425.47;5047827;28;19928;-86
2022/01/02 01:23:23;;;;;;;;;;;;;;;11.95;61.38;100421.91;5048337;28;20657;-88
2022/01/02 01:25:49;;;;;;;;;;;;;;;12.00;61.10;100416.56;5062973;28;19991;-87
2022/01/02 01:28:15;;;;;;;;;;;;;;;11.99;61.50;100425.44;5048081;28;19920;-88
2022/01/02 01:30:40;;;;;;;;;;;;;;;12.13;61.02;100422.66;5047501;28;20473;-87
2022/01/02 01:33:06;;;;;;;;;;;;;;;12.11;61.09;100419.13;5048169;28;19923;-88
2022/01/02 01:35:31;;;;;;;;;;;;;;;12.05;61.13;100420.06;5062850;28;20077;-88
2022/01/02 01:37:56;;;;;;;;;;;;;;;11.88;61.60;100425.47;5047827;28;20728;-89
2022/01/02 01:40:22;;;;;;;;;;;;;;;11.85;61.58;100421.97;5048013;28;19921;-88
2022/01/02 01:43:00;;;;;;;;;;;;;;;11.88;61.71;100421.94;5047097;28;21422;-88
2022/01/02 01:48:02;;;;;;;;;;;;;;;11.95;61.32;100423.69;5047771;28;20023;-88
2022/01/02 01:50:33;;;;;;;;;;;;;;;11.97;61.09;100417.50;5047911;28;19944;-88
2022/01/02 01:52:58;;;;;;;;;;;;;;;12.00;60.83;100425.41;5047527;28;19973;-87
2022/01/02 01:55:24;;;;;;;;;;;;;;;12.07;60.82;100426.22;5047908;28;19913;-87
2022/01/02 01:57:53;;;;;;;;;;;;;;;11.98;60.72;100426.31;5047258;28;20458;-88
2022/01/02 02:00:19;;;;;;;;;;;;;;;12.10;60.78;100430.63;5048032;28;19920;-87
2022/01/02 02:02:45;;;;;;;;;;;;;;;12.04;60.59;100433.31;5047516;28;20440;-87
2022/01/02 02:05:10;;;;;;;;;;;;;;;12.12;60.12;100436.75;5047699;28;19920;-86
2022/01/02 02:07:44;;;;;;;;;;;;;;;12.15;60.38;100439.38;5047453;28;19978;-87
2022/01/02 02:10:17;;;;;;;;;;;;;;;12.05;60.63;100435.94;5047278;28;19978;-86
2022/01/02 02:12:43;;;;;;;;;;;;;;;12.02;60.73;100435.06;5047410;28;19924;-86
2022/01/02 02:15:09;;;;;;;;;;;;;;;12.13;60.19;100427.94;5047568;28;19920;-87
2022/01/02 02:17:35;;;;;;;;;;;;;;;12.10;60.35;100425.31;5047563;28;19921;-87
2022/01/02 02:20:19;;;;;;;;;;;;;;;12.03;60.87;100426.25;5047546;28;19921;-86
2022/01/02 02:22:46;;;;;;;;;;;;;;;12.04;60.64;100428.03;5047643;28;19927;-84
2022/01/02 02:25:13;;;;;;;;;;;;;;;12.14;60.41;100424.38;5046948;28;19921;-85
2022/01/02 02:27:39;;;;;;;;;;;;;;;12.04;60.58;100422.72;5047254;28;19969;-86
2022/01/02 02:30:05;;;;;;;;;;;;;;;12.02;60.38;100429.78;5047359;28;19921;-85
2022/01/02 02:32:30;;;;;;;;;;;;;;;11.78;61.72;100426.44;5047224;28;19931;-86
2022/01/02 02:34:56;;;;;;;;;;;;;;;11.83;61.89;100428.16;5047155;28;19916;-86
2022/01/02 02:37:21;;;;;;;;;;;;;;;11.65;62.60;100434.47;5047178;28;19917;-86
2022/01/02 02:39:46;;;;;;;;;;;;;;;11.59;62.46;100423.94;5047081;28;19925;-85
2022/01/02 02:42:25;;;;;;;;;;;;;;;11.60;62.45;100423.06;5047368;28;19928;-86
2022/01/02 02:44:58;;;;;;;;;;;;;;;11.89;61.69;100427.22;5046301;28;19924;-86
2022/01/02 02:50:07;;;;;;;;;;;;;;;11.78;61.78;100427.31;5046491;28;19932;-87
2022/01/02 02:52:42;;;;;;;;;;;;;;;11.69;62.22;100427.38;5046692;28;19925;-86
2022/01/02 02:55:07;;;;;;;;;;;;;;;11.79;61.82;100428.22;5046902;28;19920;-86
2022/01/02 02:57:34;;;;;;;;;;;;;;;11.68;62.34;100433.59;5045667;28;19975;-87
2022/01/02 02:59:59;;;;;;;;;;;;;;;11.79;61.87;100428.22;5050734;28;19920;-87
2022/01/02 03:02:24;;;;;;;;;;;;;;;11.76;62.02;100429.09;5066275;28;20464;-86
2022/01/02 03:04:49;;;;;;;;;;;;;;;11.67;62.56;100436.22;5050787;28;19920;-88
2022/01/02 03:07:15;;;;;;;;;;;;;;;11.68;62.45;100443.25;5050802;28;19925;-86
2022/01/02 03:09:47;;;;;;;;;;;;;;;11.72;62.46;100437.94;5050596;28;19943;-87
2022/01/02 03:12:12;;;;;;;;;;;;;;;11.89;61.92;100431.63;5050448;28;20023;-87
2022/01/02 03:14:37;;;;;;;;;;;;;;;11.60;62.83;100433.63;5050797;28;20027;-87
2022/01/02 03:17:03;;;;;;;;;;;;;;;11.62;62.71;100436.28;5050050;28;19921;-87
2022/01/02 03:19:29;;;;;;;;;;;;;;;11.51;63.15;100441.63;5049555;28;19921;-87
2022/01/02 03:21:54;;;;;;;;;;;;;;;11.43;63.20;100446.06;5050990;28;19917;-88
2022/01/02 03:24:20;;;;;;;;;;;;;;;11.65;62.74;100449.47;5050975;28;19920;-87
2022/01/02 03:26:45;;;;;;;;;;;;;;;11.59;62.75;100447.72;5051207;28;19927;-87
2022/01/02 03:29:10;;;;;;;;;;;;;;;11.54;63.05;100443.34;5050597;28;19924;-87
2022/01/02 03:31:35;;;;;;;;;;;;;;;11.52;62.76;100442.50;5050384;28;20016;-86
2022/01/02 03:34:01;;;;;;;;;;;;;;;11.51;62.89;100452.19;5050991;28;19920;-86
2022/01/02 03:36:26;;;;;;;;;;;;;;;11.55;62.88;100450.41;5050276;28;19924;-86
2022/01/02 03:38:51;;;;;;;;;;;;;;;11.51;63.09;100457.47;5050480;28;19956;-86
2022/01/02 03:41:17;;;;;;;;;;;;;;;11.53;62.94;100457.47;5050451;28;19924;-86
2022/01/02 03:43:42;;;;;;;;;;;;;;;11.60;62.89;100453.88;5050419;28;20470;-85
2022/01/02 03:46:07;;;;;;;;;;;;;;;11.60;62.95;100449.50;5050057;28;20402;-85
2022/01/02 03:48:33;;;;;;;;;;;;;;;11.61;62.91;100456.50;5081874;28;19975;-86
2022/01/02 03:50:59;;;;;;;;;;;;;;;11.64;63.03;100455.63;5050573;28;20019;-86
2022/01/02 03:53:25;;;;;;;;;;;;;;;11.73;62.87;100458.19;5050298;28;20306;-87
2022/01/02 03:55:51;;;;;;;;;;;;;;;11.68;62.95;100451.19;5050467;28;19968;-87
2022/01/02 03:58:16;;;;;;;;;;;;;;;11.93;62.30;100449.28;5049784;28;19959;-86
2022/01/02 04:00:41;;;;;;;;;;;;;;;11.68;62.55;100452.09;5049975;28;20386;-87
2022/01/02 04:03:07;;;;;;;;;;;;;;;11.76;62.60;100458.16;5050244;28;19977;-86
2022/01/02 04:05:32;;;;;;;;;;;;;;;11.73;62.66;100454.69;5049998;28;19956;-86
2022/01/02 04:07:57;;;;;;;;;;;;;;;11.83;62.63;100459.88;5049914;28;20383;-86
2022/01/02 04:10:23;;;;;;;;;;;;;;;11.62;62.88;100455.63;5049528;28;19920;-86
2022/01/02 04:12:48;;;;;;;;;;;;;;;11.77;62.86;100469.63;5048387;28;20370;-86
2022/01/02 04:15:14;;;;;;;;;;;;;;;11.70;63.06;100463.50;5049758;28;19921;-86
2022/01/02 04:17:40;;;;;;;;;;;;;;;11.76;62.89;100473.16;5048820;28;19963;-86
2022/01/02 04:20:07;;;;;;;;;;;;;;;11.81;62.91;100474.00;5049267;28;19964;-87
2022/01/02 04:22:32;;;;;;;;;;;;;;;11.78;62.96;100471.38;5049223;28;19956;-85
2022/01/02 04:24:58;;;;;;;;;;;;;;;11.62;63.96;100474.13;5049787;28;19971;-85
2022/01/02 04:27:24;;;;;;;;;;;;;;;11.71;63.21;100477.59;5049224;28;19921;-85
2022/01/02 04:29:49;;;;;;;;;;;;;;;11.69;64.04;100479.38;5049272;28;20463;-85
2022/01/02 04:32:15;;;;;;;;;;;;;;;11.58;64.08;100474.16;5048784;28;19924;-86
2022/01/02 04:34:40;;;;;;;;;;;;;;;11.68;63.83;100475.88;5049287;28;19967;-84
2022/01/02 04:37:06;;;;;;;;;;;;;;;11.81;63.74;100479.28;5048902;28;20489;-84
2022/01/02 04:39:32;;;;;;;;;;;;;;;11.70;63.91;100478.50;5064816;28;19927;-85
2022/01/02 04:41:57;;;;;;;;;;;;;;;11.73;63.59;100478.47;5049649;28;19927;-86
2022/01/02 04:44:23;;;;;;;;;;;;;;;11.68;63.74;100482.91;5048370;28;19925;-85
2022/01/02 04:46:48;;;;;;;;;;;;;;;11.69;63.94;100484.66;5049384;28;19978;-85
2022/01/02 04:49:13;;;;;;;;;;;;;;;11.76;63.59;100483.75;5048354;28;19979;-85
2022/01/02 04:51:39;;;;;;;;;;;;;;;11.70;63.90;100489.06;5049556;28;19917;-86
2022/01/02 04:54:04;;;;;;;;;;;;;;;11.67;63.34;100489.09;5048155;28;19917;-86
2022/01/02 04:56:29;;;;;;;;;;;;;;;11.54;63.75;100497.09;5038762;28;19925;-86
2022/01/02 04:58:55;;;;;;;;;;;;;;;11.59;63.58;100489.13;5047731;28;20720;-86
2022/01/02 05:01:20;;;;;;;;;;;;;;;11.72;63.02;100492.56;5049264;28;19924;-86
2022/01/02 05:03:45;;;;;;;;;;;;;;;11.65;62.99;100486.47;5048941;28;19921;-86
2022/01/02 05:06:11;;;;;;;;;;;;;;;11.62;63.20;100497.91;5049040;28;19928;-86
2022/01/02 05:08:37;;;;;;;;;;;;;;;11.55;63.62;100490.03;5048483;28;19924;-86
2022/01/02 05:11:03;;;;;;;;;;;;;;;11.57;63.62;100494.44;5048846;28;20322;-86
2022/01/02 05:13:28;;;;;;;;;;;;;;;11.57;64.11;100502.38;5048010;28;19971;-85
2022/01/02 05:15:53;;;;;;;;;;;;;;;11.62;64.00;100507.63;5048398;28;19917;-85
2022/01/02 05:18:19;;;;;;;;;;;;;;;11.65;63.91;100507.59;5046222;28;19920;-86
2022/01/02 05:20:46;;;;;;;;;;;;;;;11.68;63.88;100504.94;5046948;28;19920;-87
2022/01/02 05:23:14;;;;;;;;;;;;;;;11.56;64.27;100503.25;5048367;28;20302;-87
2022/01/02 05:25:40;;;;;;;;;;;;;;;11.67;64.03;100502.31;5046552;28;20307;-88
2022/01/02 05:28:05;;;;;;;;;;;;;;;11.55;64.14;100496.19;5048509;28;19986;-88
2022/01/02 05:30:30;;;;;;;;;;;;;;;11.57;63.88;100488.25;5047279;28;19925;-88
2022/01/02 05:32:56;;;;;;;;;;;;;;;11.50;64.41;100502.41;5048606;28;19927;-88
2022/01/02 05:35:21;;;;;;;;;;;;;;;11.55;64.60;100504.13;5047254;28;20019;-88
2022/01/02 05:37:46;;;;;;;;;;;;;;;11.53;64.36;100495.34;5048202;28;19924;-87
2022/01/02 05:40:12;;;;;;;;;;;;;;;11.59;64.36;100510.28;5048102;28;20445;-88
2022/01/02 05:42:37;;;;;;;;;;;;;;;11.62;63.93;100502.34;5047430;28;20000;-87
2022/01/02 05:45:03;;;;;;;;;;;;;;;11.66;64.00;100511.97;5047821;28;20015;-88
2022/01/02 05:47:28;;;;;;;;;;;;;;;11.89;63.04;100511.81;5048024;28;19924;-86
2022/01/02 05:49:53;;;;;;;;;;;;;;;11.73;63.60;100516.34;5047864;28;19913;-86
2022/01/02 05:52:19;;;;;;;;;;;;;;;11.76;63.49;100508.41;5046975;28;20310;-87
2022/01/02 05:54:44;;;;;;;;;;;;;;;11.76;63.06;100518.97;5048195;28;19921;-87
2022/01/02 05:57:09;;;;;;;;;;;;;;;11.87;62.49;100516.25;5046367;28;20391;-87
2022/01/02 05:59:36;;;;;;;;;;;;;;;11.76;62.95;100515.47;5047112;28;19923;-86
2022/01/02 06:02:02;;;;;;;;;;;;;;;11.85;62.71;100522.41;5047108;28;20326;-86
2022/01/02 06:04:27;;;;;;;;;;;;;;;11.81;62.73;100529.50;5047802;28;19982;-87
2022/01/02 06:06:52;;;;;;;;;;;;;;;11.77;62.83;100530.41;5047202;28;20924;-86
2022/01/02 06:09:18;;;;;;;;;;;;;;;11.86;62.46;100538.28;5047994;28;20002;-85
2022/01/02 06:11:43;;;;;;;;;;;;;;;12.02;62.02;100539.09;5047640;28;19925;-85
2022/01/02 06:14:08;;;;;;;;;;;;;;;11.89;62.21;100542.69;5047294;28;19970;-85
2022/01/02 06:16:34;;;;;;;;;;;;;;;12.04;61.71;100539.09;5047528;28;19924;-86
2022/01/02 06:18:59;;;;;;;;;;;;;;;11.99;61.59;100536.47;5047756;28;19921;-87
2022/01/02 06:21:24;;;;;;;;;;;;;;;11.82;62.16;100541.84;5047430;28;19920;-87
2022/01/02 06:23:49;;;;;;;;;;;;;;;11.94;61.85;100546.19;5047228;28;19924;-87
2022/01/02 06:26:15;;;;;;;;;;;;;;;11.76;62.45;100560.38;5047770;28;19920;-86
2022/01/02 06:28:40;;;;;;;;;;;;;;;11.87;62.26;100558.53;5047192;28;20358;-86
2022/01/02 06:31:06;;;;;;;;;;;;;;;11.84;62.14;100561.22;5047348;28;20347;-87
2022/01/02 06:33:31;;;;;;;;;;;;;;;11.97;61.71;100570.88;5047564;28;19939;-87
2022/01/02 06:35:56;;;;;;;;;;;;;;;12.06;61.33;100572.53;5047331;28;19979;-85
2022/01/02 06:38:22;;;;;;;;;;;;;;;12.30;60.76;100576.78;5047108;28;19917;-84
2022/01/02 06:40:48;;;;;;;;;;;;;;;12.22;60.77;100572.44;5046940;28;19978;-84
2022/01/02 06:43:15;;;;;;;;;;;;;;;12.35;60.68;100577.59;5046861;28;19928;-85
2022/01/02 06:45:40;;;;;;;;;;;;;;;12.52;60.30;100580.09;5047314;28;19916;-84
2022/01/02 06:48:06;;;;;;;;;;;;;;;12.51;60.06;100581.03;5047075;28;19978;-86
2022/01/02 06:50:32;;;;;;;;;;;;;;;12.65;59.62;100587.94;5046670;28;19971;-86
2022/01/02 06:52:57;;;;;;;;;;;;;;;12.72;59.50;100587.88;5046438;28;19982;-86
2022/01/02 06:55:22;;;;;;;;;;;;;;;12.94;59.28;100597.38;5046627;28;19920;-86
2022/01/02 06:57:48;;;;;;;;;;;;;;;13.07;58.79;100594.59;5046054;28;19959;-85
2022/01/02 07:00:13;;;;;;;;;;;;;;;13.03;58.57;100597.28;5045836;28;19924;-86
2022/01/02 07:02:38;;;;;;;;;;;;;;;13.28;57.76;100597.00;5046217;28;19916;-86
2022/01/02 07:05:04;;;;;;;;;;;;;;;13.34;58.00;100596.97;5045794;28;19925;-86
2022/01/02 07:07:29;;;;;;;;;;;;;;;13.54;57.29;100594.94;5046333;28;19924;-87
2022/01/02 07:09:55;;;;;;;;;;;;;;;13.69;56.76;100593.88;5046306;28;20670;-86
2022/01/02 07:12:20;;;;;;;;;;;;;;;13.53;56.64;100593.19;5039931;28;19983;-85
2022/01/02 07:14:46;;;;;;;;;;;;;;;13.75;55.81;100596.44;5026542;28;20454;-85
2022/01/02 07:17:11;;;;;;;;;;;;;;;13.59;56.83;100595.78;5026440;28;20413;-85
2022/01/02 07:19:36;;;;;;;;;;;;;;;13.83;56.18;100592.81;5058459;28;19929;-85
2022/01/02 07:22:02;;;;;;;;;;;;;;;13.95;56.10;100592.63;5041518;28;19928;-86
2022/01/02 07:24:27;;;;;;;;;;;;;;;13.77;55.99;100591.13;5046380;28;20468;-85
2022/01/02 07:26:53;;;;;;;;;;;;;;;13.76;55.90;100599.94;5045374;28;19975;-87
2022/01/02 07:29:19;;;;;;;;;;;;;;;13.94;55.69;100601.47;5045576;28;19983;-86
2022/01/02 07:31:45;;;;;;;;;;;;;;;14.02;54.75;100602.22;5044799;28;19931;-86
2022/01/02 07:34:10;;;;;;;;;;;;;;;14.04;54.66;100596.91;5045249;28;19921;-87
2022/01/02 07:36:39;;;;;;;;;;;;;;;14.10;55.03;100591.50;5046416;28;20346;-86
2022/01/02 07:39:04;;;;;;;;;;;;;;;14.07;54.39;100589.81;5046472;28;20398;-86
2022/01/02 07:41:30;;;;;;;;;;;;;;;14.08;54.22;100599.50;5046690;28;19960;-86
2022/01/02 07:43:58;;;;;;;;;;;;;;;14.14;54.29;100591.44;5045977;28;20027;-83
2022/01/02 07:46:23;;;;;;;;;;;;;;;14.28;54.20;100595.66;5049847;28;19931;-85
2022/01/02 07:48:49;;;;;;;;;;;;;;;14.44;53.88;100597.19;5050075;28;19925;-84
2022/01/02 07:51:14;;;;;;;;;;;;;;;14.51;53.23;100600.59;5049698;28;19921;-85
2022/01/02 07:53:39;;;;;;;;;;;;;;;14.45;53.81;100596.25;5050405;28;19963;-85
2022/01/02 07:56:05;;;;;;;;;;;;;;;14.66;53.56;100594.19;5049989;28;19974;-85
2022/01/02 07:58:30;;;;;;;;;;;;;;;14.60;53.24;100597.81;5049696;28;20294;-85
2022/01/02 08:00:55;;;;;;;;;;;;;;;14.67;52.76;100594.16;5048735;28;19979;-86
2022/01/02 08:03:20;;;;;;;;;;;;;;;14.65;53.09;100595.94;5050267;28;19971;-86
2022/01/02 08:05:46;;;;;;;;;;;;;;;14.80;52.59;100596.59;5048703;28;19921;-86
2022/01/02 08:08:11;;;;;;;;;;;;;;;14.72;52.77;100602.06;5049703;28;20783;-85
2022/01/02 08:10:38;;;;;;;;;;;;;;;14.66;53.51;100604.81;5048932;28;19952;-86
2022/01/02 08:13:04;;;;;;;;;;;;;;;14.64;53.02;100604.84;5049253;28;19923;-85
2022/01/02 08:15:29;;;;;;;;;;;;;;;14.91;52.90;100605.25;5047842;28;19917;-84
2022/01/02 08:17:55;;;;;;;;;;;;;;;14.81;53.10;100609.84;5049863;28;20376;-84
2022/01/02 08:20:20;;;;;;;;;;;;;;;14.71;52.83;100608.25;5049737;28;19920;-83
2022/01/02 08:22:45;;;;;;;;;;;;;;;14.73;53.11;100605.56;5037556;28;19925;-84
2022/01/02 08:25:11;;;;;;;;;;;;;;;14.67;52.14;100606.53;5029384;28;19921;-84
2022/01/02 08:27:36;;;;;;;;;;;;;;;14.82;53.25;100611.59;5028584;28;19927;-84
2022/01/02 08:30:01;;;;;;;;;;;;;;;14.85;51.91;100603.56;5031143;28;19952;-84
2022/01/02 08:32:27;;;;;;;;;;;;;;;14.74;52.16;100602.88;5049642;28;19932;-84
2022/01/02 08:34:52;;;;;;;;;;;;;;;14.89;52.20;100604.41;5048951;28;20015;-84
2022/01/02 08:37:17;;;;;;;;;;;;;;;14.86;52.69;100607.97;5049178;28;20023;-84
2022/01/02 08:39:43;;;;;;;;;;;;;;;15.00;51.87;100606.88;5048869;28;20019;-83
2022/01/02 08:42:09;;;;;;;;;;;;;;;14.93;52.61;100608.75;5049259;28;19917;-84
2022/01/02 08:44:35;;;;;;;;;;;;;;;14.85;52.59;100610.66;5048885;28;19925;-83
2022/01/02 08:47:00;;;;;;;;;;;;;;;14.77;52.37;100613.47;5048903;28;19990;-83
2022/01/02 08:49:26;;;;;;;;;;;;;;;14.79;52.66;100616.94;5048250;28;19924;-84
2022/01/02 08:51:51;;;;;;;;;;;;;;;15.01;52.33;100621.88;5049238;28;19923;-84
2022/01/02 08:54:17;;;;;;;;;;;;;;;15.12;53.03;100621.69;5049460;28;19921;-84
2022/01/02 08:56:42;;;;;;;;;;;;;;;15.28;51.44;100630.25;5046669;28;19986;-83
2022/01/02 08:59:07;;;;;;;;;;;;;;;15.21;51.75;100617.09;5048481;28;20012;-84
2022/01/02 09:01:33;;;;;;;;;;;;;;;15.34;51.81;100624.81;5048378;28;19978;-84
2022/01/02 09:03:58;;;;;;;;;;;;;;;15.18;52.04;100618.91;5047809;28;19924;-84
2022/01/02 09:06:23;;;;;;;;;;;;;;;15.24;51.36;100615.25;5048798;28;20015;-84
2022/01/02 09:08:49;;;;;;;;;;;;;;;15.17;51.94;100614.50;5048056;28;19924;-83
2022/01/02 09:11:14;;;;;;;;;;;;;;;15.26;51.69;100618.75;5048450;28;20035;-85
2022/01/02 09:13:39;;;;;;;;;;;;;;;15.15;50.88;100609.22;5048736;28;19971;-85
2022/01/02 09:16:05;;;;;;;;;;;;;;;15.55;50.95;100603.09;5048695;28;20024;-85
2022/01/02 09:18:31;;;;;;;;;;;;;;;15.31;50.71;100592.97;5048326;28;20007;-85
2022/01/02 09:20:59;;;;;;;;;;;;;;;15.35;50.63;100594.66;5047833;28;20229;-85
2022/01/02 09:23:24;;;;;;;;;;;;;;;15.35;50.83;100587.56;5048461;28;20283;-85
2022/01/02 09:25:50;;;;;;;;;;;;;;;15.27;50.55;100592.16;5048554;28;19920;-85
2022/01/02 09:28:15;;;;;;;;;;;;;;;15.31;50.79;100579.69;5048247;28;19928;-85
2022/01/02 09:30:40;;;;;;;;;;;;;;;15.30;50.41;100570.81;5048432;28;19978;-85
2022/01/02 09:33:08;;;;;;;;;;;;;;;15.55;50.41;100570.31;5048082;28;20008;-84
2022/01/02 09:35:35;;;;;;;;;;;;;;;15.67;49.01;100564.72;5048588;28;19921;-82
2022/01/02 09:38:00;;;;;;;;;;;;;;;15.63;49.03;100563.06;5048465;28;20007;-84
2022/01/02 09:40:27;;;;;;;;;;;;;;;15.67;49.89;100561.19;5048042;28;20008;-84
2022/01/02 09:42:54;;;;;;;;;;;;;;;15.85;50.07;100555.47;5047751;28;20011;-86
2022/01/02 09:45:19;;;;;;;;;;;;;;;15.83;48.37;100557.28;5047847;28;19920;-83
2022/01/02 09:47:45;;;;;;;;;;;;;;;15.71;48.95;100555.78;5047884;28;19923;-86
2022/01/02 09:50:10;;;;;;;;;;;;;;;15.91;49.15;100555.34;5048097;28;19964;-85
2022/01/02 09:52:36;;;;;;;;;;;;;;;15.69;49.46;100557.59;5047656;28;20039;-85
2022/01/02 09:55:01;;;;;;;;;;;;;;;15.83;48.78;100554.63;5047347;28;20012;-86
2022/01/02 09:57:26;;;;;;;;;;;;;;;15.93;48.92;100556.16;5047085;28;19920;-85
2022/01/02 09:59:53;;;;;;;;;;;;;;;15.95;48.31;100555.28;5047833;28;20393;-85
2022/01/02 10:02:18;;;;;;;;;;;;;;;16.25;48.16;100551.88;5047226;28;19917;-85
2022/01/02 10:04:44;;;;;;;;;;;;;;;16.33;47.45;100553.44;5046381;28;19925;-86
2022/01/02 10:07:28;;;;;;;;;;;;;;;16.41;47.77;100544.38;5046743;28;20399;-86
2022/01/02 10:09:54;;;;;;;;;;;;;;;16.23;48.13;100543.03;5047134;28;20302;-86
2022/01/02 10:12:19;;;;;;;;;;;;;;;15.98;47.98;100537.44;5045925;28;19921;-84
2022/01/02 10:14:44;;;;;;;;;;;;;;;16.04;48.76;100537.28;5047144;28;19925;-87
2022/01/02 10:17:09;;;;;;;;;;;;;;;16.17;49.09;100529.88;5046513;28;19928;-85
2022/01/02 10:19:38;;;;;;;;;;;;;;;16.33;47.62;100529.50;5046768;28;19921;-85
2022/01/02 10:22:05;;;;;;;;;;;;;;;16.21;48.33;100522.72;5046183;28;19917;-85
2022/01/02 10:24:31;;;;;;;;;;;;;;;16.36;48.45;100516.09;5047572;28;19927;-85
2022/01/02 10:27:03;;;;;;;;;;;;;;;16.21;48.16;100515.59;5046428;28;19929;-86
2022/01/02 10:29:38;;;;;;;;;;;;;;;16.50;47.56;100507.75;5046899;28;19936;-85
2022/01/02 10:32:21;;;;;;;;;;;;;;;16.41;48.59;100503.56;5047514;28;19925;-85
2022/01/02 10:34:48;;;;;;;;;;;;;;;16.58;48.37;100497.78;5046986;28;19982;-86
2022/01/02 10:37:23;;;;;;;;;;;;;;;16.41;48.07;100495.56;5047103;28;19963;-87
2022/01/02 10:39:48;;;;;;;;;;;;;;;16.35;47.07;100490.41;5047085;28;20457;-85
2022/01/02 10:42:17;;;;;;;;;;;;;;;16.22;48.09;100485.41;5047076;28;19916;-86
2022/01/02 10:44:42;;;;;;;;;;;;;;;16.33;48.45;100484.22;5062296;28;19921;-86
2022/01/02 10:47:08;;;;;;;;;;;;;;;16.28;47.70;100493.22;5047279;28;19924;-86
2022/01/02 10:49:49;;;;;;;;;;;;;;;16.19;46.79;100482.81;5046104;28;20003;-86
2022/01/02 10:52:17;;;;;;;;;;;;;;;16.26;46.79;100492.38;5047354;28;19923;-88
2022/01/02 10:54:42;;;;;;;;;;;;;;;16.33;47.27;100485.13;5047032;28;19916;-87
2022/01/02 10:57:08;;;;;;;;;;;;;;;16.24;47.74;100482.69;5046430;28;20368;-87
2022/01/02 10:59:33;;;;;;;;;;;;;;;16.53;46.89;100491.69;5045988;28;19931;-88
2022/01/02 11:01:59;;;;;;;;;;;;;;;16.52;46.63;100489.97;5046727;28;19921;-87
2022/01/02 11:04:30;;;;;;;;;;;;;;;16.43;46.68;100485.75;5046125;28;19990;-87
2022/01/02 11:06:55;;;;;;;;;;;;;;;16.31;46.64;100488.72;5046756;28;19986;-87
2022/01/02 11:09:21;;;;;;;;;;;;;;;16.42;46.62;100476.00;5046591;28;19975;-86
2022/01/02 11:11:47;;;;;;;;;;;;;;;16.27;47.24;100475.50;5047051;28;19979;-87
2022/01/02 11:14:13;;;;;;;;;;;;;;;16.49;47.27;100474.94;5045973;28;19935;-86
2022/01/02 11:16:39;;;;;;;;;;;;;;;16.77;46.42;100471.50;5046710;28;19936;-88
2022/01/02 11:19:05;;;;;;;;;;;;;;;16.93;46.60;100471.97;5047460;28;19921;-87
2022/01/02 11:21:33;;;;;;;;;;;;;;;16.87;46.41;100465.03;5048988;28;20413;-88
2022/01/02 11:24:06;;;;;;;;;;;;;;;16.89;47.38;100457.88;5050615;28;20332;-87
2022/01/02 11:26:43;;;;;;;;;;;;;;;17.04;45.71;100455.66;5049486;28;19921;-86
2022/01/02 11:29:08;;;;;;;;;;;;;;;16.88;46.75;100452.56;5050389;28;19921;-85
2022/01/02 11:31:35;;;;;;;;;;;;;;;16.83;46.56;100461.53;5048929;28;19932;-85
2022/01/02 11:34:01;;;;;;;;;;;;;;;16.76;46.52;100452.00;5049573;28;19920;-85
2022/01/02 11:36:34;;;;;;;;;;;;;;;16.93;46.36;100450.63;5049260;28;20421;-85
2022/01/02 11:39:02;;;;;;;;;;;;;;;16.72;46.03;100445.00;5049707;28;20007;-85
2022/01/02 11:41:51;;;;;;;;;;;;;;;16.94;45.94;100445.25;5049666;28;19921;-86
2022/01/02 11:44:20;;;;;;;;;;;;;;;16.87;45.52;100443.72;5045807;28;20008;-86
2022/01/02 11:46:45;;;;;;;;;;;;;;;16.90;45.94;100445.41;5050171;28;19985;-87
2022/01/02 11:49:15;;;;;;;;;;;;;;;16.81;45.35;100443.88;5049082;28;20430;-86
2022/01/02 11:51:46;;;;;;;;;;;;;;;16.88;45.92;100437.44;5048613;28;19952;-86
2022/01/02 11:54:27;;;;;;;;;;;;;;;17.21;45.32;100440.06;5050429;28;19982;-86
2022/01/02 11:56:53;;;;;;;;;;;;;;;17.19;44.38;100439.19;5048564;28;20327;-87
2022/01/02 11:59:38;;;;;;;;;;;;;;;17.29;45.12;100435.34;5049847;28;19921;-88
2022/01/02 12:02:07;;;;;;;;;;;;;;;16.99;44.37;100438.03;5049501;28;20452;-88
2022/01/02 12:04:51;;;;;;;;;;;;;;;16.92;44.70;100436.44;5049527;28;19928;-89
2022/01/02 12:07:35;;;;;;;;;;;;;;;17.08;44.07;100433.34;5049788;28;19921;-88
2022/01/02 12:10:24;;;;;;;;;;;;;;;17.04;43.95;100432.56;5049412;28;19927;-89
2022/01/02 12:13:13;;;;;;;;;;;;;;;17.12;44.31;100435.00;5045475;28;19928;-87
2022/01/02 12:15:39;;;;;;;;;;;;;;;16.98;44.06;100430.09;5049767;28;19920;-88
2022/01/02 12:18:27;;;;;;;;;;;;;;;17.16;44.66;100431.28;5048186;28;19978;-88
2022/01/02 12:21:00;;;;;;;;;;;;;;;17.22;44.40;100427.59;5048245;28;19928;-87
2022/01/02 12:23:32;;;;;;;;;;;;;;;17.16;43.46;100421.53;5049199;28;19917;-87
2022/01/02 12:26:05;;;;;;;;;;;;;;;17.24;43.67;100421.28;5048792;28;19921;-88
2022/01/02 12:28:38;;;;;;;;;;;;;;;17.23;44.46;100424.88;5048968;28;19925;-86
2022/01/02 12:31:04;;;;;;;;;;;;;;;17.50;44.07;100414.25;5048330;28;19974;-87
2022/01/02 12:33:30;;;;;;;;;;;;;;;17.22;43.21;100411.59;5048826;28;19990;-88
2022/01/02 12:35:56;;;;;;;;;;;;;;;17.29;43.83;100414.00;5049315;28;20413;-86
2022/01/02 12:38:21;;;;;;;;;;;;;;;17.36;43.28;100418.25;5048748;28;19917;-88
2022/01/02 12:40:49;;;;;;;;;;;;;;;17.27;42.76;100415.88;5049831;28;19924;-87